Time;durP1;ratioP1;P1;durP2;ratioP2;P2;SDS_P1;SDS_P2;PMS_P1;PMS_P2;Temp;Humidity;BMP_temperature;BMP_pressure;BME280_temperature;BME280_humidity;BME280_pressure;Samples;Min_cycle;Max_cycle;Signal;HPM_P1;HPM_P2
2024/01/28 00:01:15;;;;;;;36.90;16.08;;;;;;;0.36;100.00;103289.00;5005656;28;20041;-73
2024/01/28 00:03:40;;;;;;;37.10;17.20;;;;;;;0.29;100.00;103286.22;5009520;28;20037;-73
2024/01/28 00:06:06;;;;;;;36.08;15.82;;;;;;;0.25;100.00;103275.69;5007999;28;20042;-73
2024/01/28 00:08:31;;;;;;;35.80;13.93;;;;;;;0.19;100.00;103267.69;5006678;28;20057;-73
2024/01/28 00:10:57;;;;;;;30.15;13.65;;;;;;;0.18;100.00;103265.03;5014051;28;20034;-73
2024/01/28 00:13:25;;;;;;;31.48;15.18;;;;;;;0.13;100.00;103264.06;5008046;28;20093;-73
2024/01/28 00:15:54;;;;;;;31.83;12.77;;;;;;;0.14;100.00;103258.84;5006820;28;20034;-72
2024/01/28 00:18:20;;;;;;;37.03;14.32;;;;;;;0.16;100.00;103253.66;5006273;28;20042;-73
2024/01/28 00:20:46;;;;;;;31.63;13.93;;;;;;;0.18;100.00;103252.81;5005126;28;20038;-73
2024/01/28 00:23:12;;;;;;;24.23;12.18;;;;;;;0.22;100.00;103251.13;5006237;28;20038;-73
2024/01/28 00:25:37;;;;;;;29.08;13.45;;;;;;;0.26;100.00;103250.34;5013430;28;20029;-73
2024/01/28 00:28:03;;;;;;;36.03;13.43;;;;;;;0.32;100.00;103247.81;5006425;28;23052;-73
2024/01/28 00:30:32;;;;;;;26.23;11.73;;;;;;;0.33;100.00;103244.34;4987869;28;20504;-74
2024/01/28 00:32:58;;;;;;;28.45;11.98;;;;;;;0.34;100.00;103237.34;5005070;28;20042;-74
2024/01/28 00:35:23;;;;;;;32.00;13.27;;;;;;;0.43;100.00;103246.25;5005294;28;20159;-73
2024/01/28 00:37:49;;;;;;;30.92;13.00;;;;;;;0.50;100.00;103242.00;5004466;28;20118;-74
2024/01/28 00:40:14;;;;;;;37.78;12.02;;;;;;;0.58;100.00;103248.28;5007514;28;20033;-73
2024/01/28 00:42:40;;;;;;;33.60;12.60;;;;;;;0.62;100.00;103251.84;5001998;28;20055;-73
2024/01/28 00:45:06;;;;;;;32.80;12.75;;;;;;;0.64;100.00;103243.13;5008821;28;20050;-73
2024/01/28 00:47:31;;;;;;;37.38;12.52;;;;;;;0.56;100.00;103247.38;5009200;28;20038;-73
2024/01/28 00:49:57;;;;;;;33.80;12.00;;;;;;;0.64;100.00;103242.22;5001969;28;20026;-73
2024/01/28 00:52:22;;;;;;;32.38;12.30;;;;;;;0.65;100.00;103233.50;5007353;28;20092;-73
2024/01/28 00:54:48;;;;;;;38.97;12.95;;;;;;;0.67;100.00;103231.78;5005371;28;20042;-73
2024/01/28 00:57:13;;;;;;;29.95;12.55;;;;;;;0.67;100.00;103232.66;5005361;28;20057;-73
2024/01/28 00:59:38;;;;;;;42.20;12.93;;;;;;;0.66;100.00;103237.91;5006771;28;20116;-73
2024/01/28 01:02:04;;;;;;;34.50;12.50;;;;;;;0.72;100.00;103235.38;5008166;28;20214;-75
2024/01/28 01:04:30;;;;;;;34.85;11.52;;;;;;;0.77;100.00;103233.72;5008256;28;20073;-72
2024/01/28 01:06:55;;;;;;;40.42;13.07;;;;;;;0.77;100.00;103234.59;5005522;28;20037;-73
2024/01/28 01:09:21;;;;;;;29.63;11.43;;;;;;;0.75;100.00;103240.66;5007668;28;20491;-73
2024/01/28 01:11:46;;;;;;;26.65;10.82;;;;;;;0.76;100.00;103230.19;5007032;28;20042;-72
2024/01/28 01:14:12;;;;;;;23.98;10.68;;;;;;;0.79;100.00;103229.34;5004038;28;20942;-73
2024/01/28 01:16:37;;;;;;;35.08;11.80;;;;;;;0.78;100.00;103223.22;5007470;28;20551;-72
2024/01/28 01:19:03;;;;;;;32.08;11.57;;;;;;;0.81;100.00;103219.78;5006082;28;20040;-73
2024/01/28 01:21:28;;;;;;;39.70;12.88;;;;;;;0.89;100.00;103222.50;5000532;28;20845;-73
2024/01/28 01:23:54;;;;;;;39.00;11.55;;;;;;;0.86;100.00;103225.09;5009665;28;20045;-73
2024/01/28 01:26:19;;;;;;;27.83;10.85;;;;;;;0.84;100.00;103234.69;5007767;28;20042;-73
2024/01/28 01:28:45;;;;;;;32.30;11.85;;;;;;;0.85;100.00;103228.56;5008953;28;20033;-72
2024/01/28 01:31:11;;;;;;;30.48;11.38;;;;;;;0.91;100.00;103223.41;5008541;28;20810;-72
2024/01/28 01:33:36;;;;;;;32.85;12.10;;;;;;;0.86;100.00;103228.59;5004286;28;20026;-73
2024/01/28 01:36:02;;;;;;;35.67;11.45;;;;;;;0.82;100.00;103228.53;5008466;28;20073;-72
2024/01/28 01:38:27;;;;;;;30.13;11.68;;;;;;;0.75;100.00;103224.91;5009182;28;20026;-72
2024/01/28 01:40:53;;;;;;;31.42;11.55;;;;;;;0.70;100.00;103222.22;5010353;28;20037;-72
2024/01/28 01:43:18;;;;;;;41.70;11.57;;;;;;;0.68;100.00;103221.31;5005760;28;20046;-73
2024/01/28 01:45:44;;;;;;;33.63;11.50;;;;;;;0.65;100.00;103215.13;5010951;28;20073;-73
2024/01/28 01:48:12;;;;;;;34.55;11.98;;;;;;;0.66;100.00;103217.78;5005676;28;20492;-75
2024/01/28 01:50:43;;;;;;;36.25;11.40;;;;;;;0.67;100.00;103216.03;5007202;28;20026;-74
2024/01/28 01:53:12;;;;;;;37.83;13.20;;;;;;;0.67;100.00;103214.28;5007187;28;20083;-74
2024/01/28 01:55:39;;;;;;;28.88;12.52;;;;;;;0.63;100.00;103217.72;5007509;28;20034;-74
2024/01/28 01:58:05;;;;;;;32.60;12.00;;;;;;;0.66;100.00;103222.16;5010317;28;21624;-74
2024/01/28 02:00:32;;;;;;;35.53;11.20;;;;;;;0.65;100.00;103217.75;5010464;28;20053;-74
2024/01/28 02:02:58;;;;;;;34.13;12.00;;;;;;;0.58;100.00;103208.88;5011362;28;20037;-75
2024/01/28 02:05:24;;;;;;;27.50;11.90;;;;;;;0.59;100.00;103205.41;5004222;28;20050;-75
2024/01/28 02:07:49;;;;;;;29.60;11.88;;;;;;;0.63;100.00;103215.09;5014326;28;20030;-74
2024/01/28 02:10:15;;;;;;;30.30;12.35;;;;;;;0.61;100.00;103211.56;5005605;28;20090;-73
2024/01/28 02:12:45;;;;;;;23.55;11.52;;;;;;;0.57;100.00;103207.13;5010719;28;20062;-74
2024/01/28 02:15:11;;;;;;;38.35;12.50;;;;;;;0.61;100.00;103208.06;5009543;28;20030;-74
2024/01/28 02:17:37;;;;;;;36.95;13.02;;;;;;;0.60;100.00;103198.41;5009837;28;20050;-74
2024/01/28 02:20:04;;;;;;;33.65;13.35;;;;;;;0.53;100.00;103197.44;5008930;28;20049;-74
2024/01/28 02:22:29;;;;;;;29.75;12.02;;;;;;;0.50;100.00;103195.66;5010506;28;20093;-74
2024/01/28 02:24:57;;;;;;;38.97;13.80;;;;;;;0.51;100.00;103193.91;5008569;28;20580;-74
2024/01/28 02:27:22;;;;;;;35.50;13.15;;;;;;;0.55;100.00;103200.06;5007816;28;20042;-75
2024/01/28 02:29:48;;;;;;;26.40;12.05;;;;;;;0.52;100.00;103198.31;5003326;28;20061;-74
2024/01/28 02:32:16;;;;;;;31.45;12.57;;;;;;;0.50;100.00;103200.91;5006479;28;20735;-74
2024/01/28 02:34:42;;;;;;;31.48;11.98;;;;;;;0.48;100.00;103204.34;5008977;28;21331;-74
2024/01/28 02:37:10;;;;;;;32.17;12.50;;;;;;;0.42;100.00;103199.88;5010566;28;20030;-74
2024/01/28 02:39:38;;;;;;;35.92;12.50;;;;;;;0.39;100.00;103198.94;5010331;28;20045;-74
2024/01/28 02:42:04;;;;;;;36.00;12.73;;;;;;;0.36;100.00;103197.16;5022088;28;20125;-74
2024/01/28 02:44:29;;;;;;;32.40;12.85;;;;;;;0.37;100.00;103200.66;5007301;28;20052;-72
2024/01/28 02:46:55;;;;;;;36.42;13.07;;;;;;;0.37;100.00;103198.06;5007250;28;20829;-74
2024/01/28 02:49:23;;;;;;;41.83;14.07;;;;;;;0.34;100.00;103201.50;5006320;28;20037;-75
2024/01/28 02:51:52;;;;;;;29.13;13.73;;;;;;;0.34;100.00;103191.00;5009229;28;20026;-74
2024/01/28 02:54:17;;;;;;;35.25;13.25;;;;;;;0.37;100.00;103192.81;5005313;28;20038;-75
2024/01/28 02:56:43;;;;;;;34.80;12.90;;;;;;;0.36;100.00;103197.16;4999923;28;20045;-75
2024/01/28 02:59:10;;;;;;;40.17;13.77;;;;;;;0.32;100.00;103184.84;5001983;28;20033;-75
2024/01/28 03:01:45;;;;;;;27.15;13.02;;;;;;;0.19;100.00;103169.75;5008735;28;20214;-74
2024/01/28 03:04:10;;;;;;;31.98;13.30;;;;;;;0.26;100.00;103174.25;5003313;28;20046;-74
2024/01/28 03:06:36;;;;;;;30.38;13.73;;;;;;;0.29;100.00;103169.03;5005891;28;20041;-74
2024/01/28 03:09:04;;;;;;;33.20;12.32;;;;;;;0.27;100.00;103159.38;5005596;28;20092;-74
2024/01/28 03:11:30;;;;;;;30.30;13.13;;;;;;;0.20;100.00;103148.81;5002069;28;20050;-74
2024/01/28 03:13:55;;;;;;;31.90;13.80;;;;;;;0.16;100.00;103148.72;5009243;28;20635;-74
2024/01/28 03:16:21;;;;;;;33.90;13.18;;;;;;;0.13;100.00;103149.53;5000440;28;20037;-74
2024/01/28 03:18:46;;;;;;;38.92;13.45;;;;;;;0.24;100.00;103145.34;5007887;28;20034;-74
2024/01/28 03:21:12;;;;;;;30.17;11.88;;;;;;;0.27;100.00;103143.66;5008568;28;21024;-73
2024/01/28 03:23:37;;;;;;;32.58;12.43;;;;;;;0.25;100.00;103135.72;5003324;28;20570;-74
2024/01/28 03:26:03;;;;;;;28.98;11.52;;;;;;;0.30;100.00;103141.06;5007433;28;20045;-73
2024/01/28 03:28:28;;;;;;;27.63;11.70;;;;;;;0.34;100.00;103143.75;5002642;28;20034;-73
2024/01/28 03:30:54;;;;;;;27.60;11.55;;;;;;;0.32;100.00;103132.38;5006728;28;20068;-73
2024/01/28 03:33:20;;;;;;;32.20;11.65;;;;;;;0.30;100.00;103148.94;5008935;28;20038;-74
2024/01/28 03:35:45;;;;;;;33.55;12.18;;;;;;;0.28;100.00;103145.41;5003862;28;20038;-73
2024/01/28 03:38:11;;;;;;;26.52;11.52;;;;;;;0.27;100.00;103141.03;5007248;28;20861;-73
2024/01/28 03:40:36;;;;;;;31.33;12.05;;;;;;;0.22;100.00;103139.22;5008179;28;20642;-73
2024/01/28 03:43:02;;;;;;;33.15;11.75;;;;;;;0.21;100.00;103147.06;5001863;28;20049;-73
2024/01/28 03:45:28;;;;;;;30.75;10.82;;;;;;;0.18;100.00;103142.63;5005767;28;20155;-73
2024/01/28 03:47:56;;;;;;;28.35;11.35;;;;;;;0.16;100.00;103144.34;5006059;28;20725;-74
2024/01/28 03:50:22;;;;;;;33.33;11.20;;;;;;;0.16;100.00;103140.84;5008366;28;20311;-73
2024/01/28 03:52:47;;;;;;;31.80;11.30;;;;;;;0.22;100.00;103138.31;5007696;28;20042;-73
2024/01/28 03:55:13;;;;;;;28.73;11.38;;;;;;;0.19;100.00;103140.88;5004666;28;20037;-74
2024/01/28 03:57:39;;;;;;;32.05;12.18;;;;;;;0.21;100.00;103141.81;5006387;28;20052;-74
2024/01/28 04:00:06;;;;;;;36.22;11.85;;;;;;;0.21;100.00;103134.81;5004702;28;20062;-73
2024/01/28 04:02:38;;;;;;;25.83;10.30;;;;;;;0.19;100.00;103122.53;5006566;28;20038;-73
2024/01/28 04:05:05;;;;;;;26.65;11.13;;;;;;;0.16;100.00;103132.97;5009110;28;20044;-73
2024/01/28 04:07:30;;;;;;;23.20;10.70;;;;;;;0.19;100.00;103126.03;5010596;28;20158;-74
2024/01/28 04:09:56;;;;;;;30.42;10.98;;;;;;;0.24;100.00;103126.09;5006398;28;20068;-74
2024/01/28 04:12:22;;;;;;;21.13;10.13;;;;;;;0.21;100.00;103132.19;5002958;28;20042;-74
2024/01/28 04:14:47;;;;;;;27.05;10.80;;;;;;;0.20;100.00;103129.53;5005402;28;20056;-73
2024/01/28 04:17:13;;;;;;;29.83;11.55;;;;;;;0.14;100.00;103124.19;5009663;28;20037;-73
2024/01/28 04:19:38;;;;;;;29.48;10.23;;;;;;;0.16;100.00;103125.13;5004975;28;20092;-73
2024/01/28 04:22:04;;;;;;;21.23;9.68;;;;;;;0.16;100.00;103126.00;4999645;28;20038;-73
2024/01/28 04:24:29;;;;;;;32.35;10.57;;;;;;;0.15;100.00;103118.06;5006428;28;20098;-74
2024/01/28 04:26:55;;;;;;;35.28;12.07;;;;;;;0.17;100.00;103116.38;5005722;28;20038;-74
2024/01/28 04:29:21;;;;;;;25.10;10.65;;;;;;;0.16;100.00;103107.63;5006213;28;20856;-74
2024/01/28 04:31:46;;;;;;;32.50;10.75;;;;;;;0.08;100.00;103113.59;5000257;28;20042;-73
2024/01/28 04:34:12;;;;;;;27.02;9.15;;;;;;;0.11;100.00;103116.28;5004530;28;20108;-74
2024/01/28 04:36:37;;;;;;;34.03;10.95;;;;;;;0.07;100.00;103101.34;5003225;28;20745;-74
2024/01/28 04:39:03;;;;;;;26.02;9.35;;;;;;;0.13;100.00;103091.81;5005320;28;20735;-73
2024/01/28 04:41:29;;;;;;;29.58;10.40;;;;;;;0.12;100.00;103094.44;5008025;28;20117;-74
2024/01/28 04:43:54;;;;;;;28.55;9.80;;;;;;;0.09;100.00;103095.25;5008923;28;20042;-75
2024/01/28 04:46:20;;;;;;;23.48;9.98;;;;;;;0.05;100.00;103087.31;5007625;28;20597;-73
2024/01/28 04:48:45;;;;;;;26.38;10.45;;;;;;;0.03;100.00;103095.16;5009809;28;20048;-74
2024/01/28 04:51:11;;;;;;;20.40;10.27;;;;;;;0.02;100.00;103085.53;5006264;28;20057;-74
2024/01/28 04:53:36;;;;;;;29.85;10.93;;;;;;;-0.01;100.00;103081.09;5009178;28;20108;-74
2024/01/28 04:56:02;;;;;;;20.92;9.43;;;;;;;-0.02;100.00;103079.34;5005265;28;20034;-73
2024/01/28 04:58:28;;;;;;;26.50;10.98;;;;;;;-0.01;100.00;103077.59;5005826;28;20037;-74
2024/01/28 05:00:54;;;;;;;29.63;11.13;;;;;;;-0.04;100.00;103077.56;5008824;28;20041;-74
2024/01/28 05:03:20;;;;;;;18.58;10.25;;;;;;;-0.04;100.00;103067.09;5002435;28;20033;-74
2024/01/28 05:05:45;;;;;;;23.27;10.23;;;;;;;-0.06;100.00;103074.03;5008086;28;20801;-74
2024/01/28 05:08:11;;;;;;;24.70;10.40;;;;;;;-0.08;100.00;103060.91;5005786;28;20956;-73
2024/01/28 05:10:38;;;;;;;23.02;9.80;;;;;;;-0.09;100.00;103071.38;5008800;28;20127;-74
2024/01/28 05:13:04;;;;;;;26.08;9.88;;;;;;;-0.10;100.00;103065.25;5004379;28;20042;-73
2024/01/28 05:15:29;;;;;;;25.10;10.07;;;;;;;-0.17;100.00;103070.34;5007714;28;20035;-74
2024/01/28 05:17:55;;;;;;;28.13;10.32;;;;;;;-0.18;100.00;103065.97;5012915;28;20064;-73
2024/01/28 05:20:21;;;;;;;33.58;9.77;;;;;;;-0.16;100.00;103066.88;5008983;28;20053;-74
2024/01/28 05:22:47;;;;;;;23.05;10.23;;;;;;;-0.17;100.00;103065.09;5021329;28;20033;-73
2024/01/28 05:25:13;;;;;;;25.33;10.38;;;;;;;-0.17;100.00;103067.72;5008114;28;20046;-73
2024/01/28 05:27:39;;;;;;;20.08;9.30;;;;;;;-0.15;100.00;103064.28;5012436;28;20026;-73
2024/01/28 05:30:06;;;;;;;34.15;12.40;;;;;;;-0.17;100.00;103062.47;5005568;28;20042;-74
2024/01/28 05:32:31;;;;;;;29.10;10.23;;;;;;;-0.20;100.00;103058.09;5005768;28;20041;-74
2024/01/28 05:34:57;;;;;;;28.73;9.98;;;;;;;-0.23;100.00;103049.28;5013594;28;20157;-74
2024/01/28 05:37:23;;;;;;;30.58;11.05;;;;;;;-0.30;100.00;103051.81;5011828;28;20056;-73
2024/01/28 05:39:49;;;;;;;26.98;10.05;;;;;;;-0.30;100.00;103049.19;5006925;28;20049;-74
2024/01/28 05:42:15;;;;;;;27.13;10.05;;;;;;;-0.36;100.00;103043.81;5004319;28;20037;-73
2024/01/28 05:44:40;;;;;;;26.75;11.20;;;;;;;-0.31;100.00;103036.91;5007834;28;20871;-74
2024/01/28 05:47:06;;;;;;;22.00;9.68;;;;;;;-0.29;100.00;103039.56;5010755;28;20030;-74
2024/01/28 05:49:33;;;;;;;23.75;9.68;;;;;;;-0.30;100.00;103043.06;5011471;28;20049;-74
2024/01/28 05:51:58;;;;;;;21.33;10.65;;;;;;;-0.32;100.00;103037.75;5010963;28;20030;-73
2024/01/28 05:54:24;;;;;;;28.52;10.43;;;;;;;-0.36;100.00;103035.06;5005973;28;20022;-74
2024/01/28 05:56:50;;;;;;;24.20;10.55;;;;;;;-0.42;100.00;103030.59;5011839;28;20057;-74
2024/01/28 05:59:15;;;;;;;30.73;9.80;;;;;;;-0.44;100.00;103029.72;5005540;28;20030;-74
2024/01/28 06:01:41;;;;;;;27.13;10.07;;;;;;;-0.43;100.00;103028.84;5010038;28;20034;-74
2024/01/28 06:04:09;;;;;;;29.13;9.57;;;;;;;-0.43;100.00;103035.81;5005446;28;20054;-74
2024/01/28 06:06:34;;;;;;;29.58;8.75;;;;;;;-0.43;100.00;103022.72;5011643;28;20034;-73
2024/01/28 06:09:00;;;;;;;22.50;8.60;;;;;;;-0.39;100.00;103019.31;5005454;28;20042;-74
2024/01/28 06:11:25;;;;;;;26.70;8.60;;;;;;;-0.35;100.00;103013.22;5009512;28;20058;-74
2024/01/28 06:13:51;;;;;;;19.65;8.02;;;;;;;-0.34;100.00;103010.66;5007856;28;20044;-74
2024/01/28 06:16:17;;;;;;;22.75;8.82;;;;;;;-0.35;100.00;103008.00;5007817;28;20838;-74
2024/01/28 06:18:43;;;;;;;27.95;9.20;;;;;;;-0.37;100.00;102997.50;5010350;28;20145;-73
2024/01/28 06:21:13;;;;;;;19.15;9.30;;;;;;;-0.37;100.00;102994.88;5009935;28;20694;-74
2024/01/28 06:23:40;;;;;;;21.42;8.18;;;;;;;-0.42;100.00;102993.03;5026574;28;20058;-75
2024/01/28 06:26:07;;;;;;;23.55;7.68;;;;;;;-0.40;100.00;102993.94;5008784;28;20037;-75
2024/01/28 06:28:33;;;;;;;29.20;10.10;;;;;;;-0.35;100.00;102997.50;5003845;28;20099;-74
2024/01/28 06:30:58;;;;;;;23.02;7.72;;;;;;;-0.32;100.00;102981.84;4994315;28;20088;-74
2024/01/28 06:33:24;;;;;;;21.55;7.50;;;;;;;-0.25;100.00;102970.63;5003678;28;20092;-74
2024/01/28 06:35:49;;;;;;;18.70;8.00;;;;;;;-0.22;100.00;102977.63;5008866;28;20030;-74
2024/01/28 06:38:15;;;;;;;29.73;8.95;;;;;;;-0.24;100.00;102972.38;5009020;28;20044;-74
2024/01/28 06:40:41;;;;;;;19.10;7.70;;;;;;;-0.20;100.00;102970.66;5006310;28;20034;-74
2024/01/28 06:43:06;;;;;;;25.15;8.23;;;;;;;-0.19;100.00;102969.81;5003134;28;20085;-73
2024/01/28 06:45:32;;;;;;;26.27;8.57;;;;;;;-0.18;100.00;102969.84;5006071;28;20071;-74
2024/01/28 06:47:57;;;;;;;30.52;8.80;;;;;;;-0.18;100.00;102977.72;5004307;28;20506;-74
2024/01/28 06:50:23;;;;;;;28.85;8.57;;;;;;;-0.18;100.00;102980.34;5007143;28;20034;-75
2024/01/28 07:04:09;;;;;;;27.60;10.35;;;;;;;-0.09;100.00;102953.38;4880107;28;20042;-74
2024/01/28 07:06:35;;;;;;;35.05;10.23;;;;;;;-0.02;100.00;102942.97;5003244;28;20406;-75
2024/01/28 07:09:00;;;;;;;31.63;9.70;;;;;;;0.17;100.00;102951.13;5004317;28;20034;-74
2024/01/28 07:11:26;;;;;;;29.05;10.00;;;;;;;0.17;100.00;102944.13;5007346;28;20042;-74
2024/01/28 07:13:51;;;;;;;31.65;10.10;;;;;;;0.08;100.00;102946.63;4999481;28;20037;-75
2024/01/28 07:16:18;;;;;;;25.38;10.10;;;;;;;0.10;100.00;102960.66;5001713;28;20038;-74
2024/01/28 07:18:43;;;;;;;26.05;9.82;;;;;;;0.04;100.00;102951.78;4990406;28;20043;-74
2024/01/28 07:21:12;;;;;;;24.73;9.38;;;;;;;0.05;100.00;102950.94;5010718;28;20038;-74
2024/01/28 07:23:38;;;;;;;24.73;10.13;;;;;;;0.09;100.00;102955.38;5006128;28;20070;-74
2024/01/28 07:26:06;;;;;;;25.33;9.52;;;;;;;0.12;100.00;102953.69;4993597;28;20053;-74
2024/01/28 07:28:34;;;;;;;31.40;9.45;;;;;;;0.11;100.00;102953.66;5005307;28;20062;-73
2024/01/28 07:47:40;;;;;;;19.17;7.97;;;;;;;0.33;100.00;102960.94;5592489;23;20162;-92
2024/01/28 07:50:06;;;;;;;20.90;6.97;;;;;;;0.43;100.00;102952.34;4928293;28;20472;-90
2024/01/28 07:52:32;;;;;;;21.73;8.13;;;;;;;0.47;100.00;102958.50;4932722;28;20043;-91
2024/01/28 07:54:57;;;;;;;23.00;7.93;;;;;;;0.49;100.00;102952.41;4911927;28;20546;-90
2024/01/28 07:57:23;;;;;;;20.83;7.93;;;;;;;0.52;100.00;102954.19;4936810;23;20696;-77
2024/01/28 07:59:49;;;;;;;23.58;7.43;;;;;;;0.55;100.00;102958.59;4927130;28;21173;-77
2024/01/28 08:02:15;;;;;;;22.55;7.68;;;;;;;0.65;100.00;102958.75;4926024;28;21304;-77
2024/01/28 08:04:41;;;;;;;20.70;8.77;;;;;;;0.84;100.00;102956.31;4927154;28;20048;-76
2024/01/28 08:07:07;;;;;;;22.83;7.88;;;;;;;0.97;100.00;102952.97;4922873;28;20540;-77
2024/01/28 08:09:33;;;;;;;22.23;8.15;;;;;;;1.02;100.00;102951.25;4924020;28;20052;-79
2024/01/28 08:11:59;;;;;;;17.45;7.28;;;;;;;1.08;100.00;102951.31;4922659;28;20040;-78
2024/01/28 08:14:27;;;;;;;20.10;6.80;;;;;;;1.19;100.00;102946.16;4923256;28;20114;-77
2024/01/28 08:16:54;;;;;;;22.73;6.95;;;;;;;1.32;100.00;102937.53;4923512;28;20043;-77
2024/01/28 08:19:20;;;;;;;14.15;7.18;;;;;;;1.45;100.00;102938.50;4925906;28;20135;-77
2024/01/28 08:21:45;;;;;;;21.67;6.32;;;;;;;1.45;100.00;102938.50;4939801;28;20035;-77
2024/01/28 08:24:11;;;;;;;22.08;6.75;;;;;;;1.43;100.00;102925.34;4928557;28;20044;-77
2024/01/28 08:26:37;;;;;;;19.02;6.57;;;;;;;1.43;100.00;102930.59;4925573;28;20146;-78
2024/01/28 08:29:03;;;;;;;15.70;7.05;;;;;;;1.40;100.00;102924.44;4923501;28;20042;-78
2024/01/28 08:31:29;;;;;;;14.85;5.97;;;;;;;1.49;100.00;102917.50;4926070;28;20959;-77
2024/01/28 08:33:54;;;;;;;18.15;8.07;;;;;;;1.59;100.00;102917.59;4923539;28;20122;-77
2024/01/28 08:36:20;;;;;;;15.70;6.20;;;;;;;1.63;100.00;102903.59;4923505;28;20607;-77
2024/01/28 08:38:45;;;;;;;17.52;6.63;;;;;;;1.66;100.00;102907.13;4927530;28;20554;-76
2024/01/28 08:41:14;;;;;;;14.98;5.40;;;;;;;1.81;100.00;102904.59;4917530;28;20047;-76
2024/01/28 08:43:40;;;;;;;19.45;6.43;;;;;;;1.90;100.00;102905.50;4929765;28;20036;-79
2024/01/28 08:46:05;;;;;;;17.00;5.50;;;;;;;1.92;100.00;102904.66;4925922;28;20050;-76
2024/01/28 08:48:31;;;;;;;15.32;6.18;;;;;;;1.92;100.00;102901.16;4925857;28;20035;-76
2024/01/28 08:50:57;;;;;;;12.23;5.97;;;;;;;1.88;100.00;102907.25;4924882;28;20088;-78
2024/01/28 08:53:23;;;;;;;19.45;7.05;;;;;;;1.92;100.00;102909.03;4928361;28;20183;-79
2024/01/28 08:55:48;;;;;;;22.35;6.18;;;;;;;1.94;100.00;102913.44;4928835;28;20035;-77
2024/01/28 08:58:14;;;;;;;15.82;5.97;;;;;;;1.95;100.00;102909.03;4925542;28;20553;-78
2024/01/28 09:00:39;;;;;;;11.23;5.07;;;;;;;2.00;100.00;102899.41;4926545;28;20511;-77
2024/01/28 09:03:05;;;;;;;16.63;5.50;;;;;;;2.08;100.00;102898.59;4931285;28;20048;-77
2024/01/28 09:05:31;;;;;;;15.65;6.07;;;;;;;2.22;100.00;102898.66;4917099;28;20146;-76
2024/01/28 09:07:56;;;;;;;17.17;5.40;;;;;;;2.18;100.00;102894.25;4920196;28;20063;-75
2024/01/28 09:10:23;;;;;;;15.80;6.20;;;;;;;2.23;100.00;102904.81;4922132;28;21012;-77
2024/01/28 09:12:48;;;;;;;16.55;6.20;;;;;;;2.28;100.00;102903.06;4923357;28;20134;-77
2024/01/28 09:15:14;;;;;;;15.57;6.40;;;;;;;2.37;100.00;102899.63;4925897;28;20050;-77
2024/01/28 09:17:39;;;;;;;15.55;5.75;;;;;;;2.34;100.00;102892.56;4923879;28;20843;-79
2024/01/28 09:20:05;;;;;;;19.75;6.18;;;;;;;2.28;100.00;102895.19;4922785;28;20036;-79
2024/01/28 09:22:34;;;;;;;16.92;6.60;;;;;;;2.24;100.00;102899.53;4925291;28;20050;-78
2024/01/28 09:24:59;;;;;;;19.27;6.68;;;;;;;2.23;100.00;102891.66;4922019;28;20994;-75
2024/01/28 09:27:25;;;;;;;15.07;7.03;;;;;;;2.28;100.00;102897.81;4923728;28;20036;-78
2024/01/28 09:29:51;;;;;;;18.55;6.60;;;;;;;2.27;100.00;102885.53;4924616;28;20039;-76
2024/01/28 09:32:19;;;;;;;20.88;7.43;;;;;;;2.34;100.00;102885.53;4903038;28;20044;-76
2024/01/28 09:34:45;;;;;;;19.00;5.88;;;;;;;2.60;100.00;102882.13;4925033;28;20109;-75
2024/01/28 09:37:11;;;;;;;14.60;5.85;;;;;;;2.69;100.00;102882.13;4919496;28;20554;-76
2024/01/28 09:39:36;;;;;;;16.65;5.80;;;;;;;2.75;100.00;102886.53;4924810;28;20082;-76
2024/01/28 09:42:18;;;;;;;15.75;5.53;;;;;;;2.74;100.00;102887.41;4919346;28;20040;-76
2024/01/28 09:44:44;;;;;;;10.70;5.30;;;;;;;2.71;100.00;102885.69;4920047;28;20669;-77
2024/01/28 09:47:10;;;;;;;14.55;4.97;;;;;;;2.93;100.00;102889.22;4914589;28;20035;-78
2024/01/28 09:49:39;;;;;;;12.15;5.00;;;;;;;2.96;100.00;102890.97;4922099;28;20143;-77
2024/01/28 09:52:08;;;;;;;13.93;5.85;;;;;;;3.07;100.00;102879.56;4923910;28;20035;-77
2024/01/28 09:54:34;;;;;;;14.85;5.38;;;;;;;3.20;100.00;102872.53;4921310;28;20502;-77
2024/01/28 09:57:01;;;;;;;11.63;4.85;;;;;;;3.22;100.00;102867.28;4904775;28;21040;-78
2024/01/28 09:59:29;;;;;;;14.55;4.65;;;;;;;3.21;100.00;102869.00;4927752;28;20063;-78
2024/01/28 10:01:55;;;;;;;13.88;5.30;;;;;;;3.29;100.00;102872.53;4930899;28;20038;-78
2024/01/28 10:04:21;;;;;;;17.05;5.05;;;;;;;3.35;100.00;102869.88;4923797;28;20036;-78
2024/01/28 10:06:48;;;;;;;9.88;5.00;;;;;;;3.37;100.00;102868.16;4923883;28;20040;-79
2024/01/28 10:09:14;;;;;;;10.43;5.03;;;;;;;3.42;100.00;102862.00;4926609;28;20048;-77
2024/01/28 10:11:40;;;;;;;14.63;6.20;;;;;;;3.50;100.00;102852.28;4927599;28;20070;-77
2024/01/28 10:14:05;;;;;;;10.70;4.63;;;;;;;3.54;100.00;102854.06;4912043;28;20039;-77
2024/01/28 10:16:32;;;;;;;15.50;5.65;;;;;;;3.57;100.00;102856.69;4923922;28;20837;-77
2024/01/28 10:18:57;;;;;;;9.73;5.20;;;;;;;3.62;100.00;102854.94;4927080;28;20090;-77
2024/01/28 10:21:24;;;;;;;17.20;5.45;;;;;;;3.66;100.00;102859.28;4919322;28;20951;-77
2024/01/28 10:23:51;;;;;;;11.77;5.20;;;;;;;3.68;100.00;102865.47;4925414;28;20031;-77
2024/01/28 10:26:16;;;;;;;13.10;5.55;;;;;;;3.82;100.00;102857.53;4926908;28;20043;-77
2024/01/28 10:28:42;;;;;;;11.90;4.80;;;;;;;3.86;100.00;102849.56;4927695;28;20389;-77
2024/01/28 10:31:08;;;;;;;15.57;4.78;;;;;;;3.95;100.00;102845.16;4923429;28;20051;-77
2024/01/28 10:33:34;;;;;;;16.95;5.20;;;;;;;4.05;100.00;102834.53;4927379;28;20063;-76
2024/01/28 10:36:03;;;;;;;9.38;4.40;;;;;;;4.15;100.00;102835.38;4925195;28;20096;-79
2024/01/28 10:38:31;;;;;;;11.90;5.07;;;;;;;4.16;100.00;102843.28;4926004;28;20044;-78
2024/01/28 10:40:58;;;;;;;13.38;4.95;;;;;;;4.28;100.00;102838.84;4924101;28;20040;-79
2024/01/28 10:43:30;;;;;;;10.88;4.63;;;;;;;4.27;100.00;102835.34;4925010;28;20052;-79
2024/01/28 10:45:56;;;;;;;14.20;5.18;;;;;;;4.31;100.00;102826.50;4926590;28;20046;-78
2024/01/28 10:48:23;;;;;;;13.30;4.50;;;;;;;4.36;100.00;102821.19;4922387;28;20046;-77
2024/01/28 10:50:51;;;;;;;12.45;5.03;;;;;;;4.37;100.00;102817.69;4922981;28;20066;-77
2024/01/28 10:53:18;;;;;;;10.57;4.63;;;;;;;4.54;100.00;102807.88;4924488;28;20708;-76
2024/01/28 10:55:44;;;;;;;21.35;6.03;;;;;;;4.61;100.00;102811.34;4928713;28;20189;-77
2024/01/28 10:58:11;;;;;;;10.50;4.95;;;;;;;4.72;100.00;102796.31;4928763;28;20194;-77
2024/01/28 11:00:37;;;;;;;13.48;4.95;;;;;;;4.70;100.00;102794.56;4924435;28;20050;-77
2024/01/28 11:03:07;;;;;;;13.65;5.07;;;;;;;4.78;100.00;102795.38;4923740;28;20085;-77
2024/01/28 11:05:35;;;;;;;10.70;5.50;;;;;;;4.75;100.00;102784.81;4926494;28;20039;-77
2024/01/28 11:08:00;;;;;;;14.93;6.22;;;;;;;4.82;100.00;102783.88;4928042;28;20090;-77
2024/01/28 11:10:27;;;;;;;16.20;5.93;;;;;;;4.94;100.00;102778.50;4927903;28;20210;-77
2024/01/28 11:12:54;;;;;;;11.45;4.22;;;;;;;4.82;100.00;102784.78;4924800;28;20040;-77
2024/01/28 11:15:20;;;;;;;10.07;4.75;;;;;;;4.90;100.00;102776.78;4922584;28;20039;-76
2024/01/28 11:17:46;;;;;;;8.85;5.38;;;;;;;4.96;100.00;102767.91;4927542;28;20043;-77
2024/01/28 11:20:17;;;;;;;9.85;4.60;;;;;;;5.08;100.00;102766.03;4924487;28;20119;-77
2024/01/28 11:22:47;;;;;;;10.25;4.68;;;;;;;5.09;100.00;102769.56;4920639;28;20526;-77
2024/01/28 11:25:17;;;;;;;14.55;5.22;;;;;;;5.12;100.00;102756.28;4923852;28;20482;-77
2024/01/28 11:27:43;;;;;;;13.40;4.85;;;;;;;5.10;100.00;102761.59;4925908;28;20078;-77
2024/01/28 11:30:11;;;;;;;15.15;4.68;;;;;;;5.16;100.00;102747.44;4926707;28;20036;-77
2024/01/28 11:32:36;;;;;;;10.88;4.43;;;;;;;5.28;100.00;102762.31;4926543;28;20346;-77
2024/01/28 11:35:03;;;;;;;10.75;4.45;;;;;;;5.24;100.00;102761.47;4926502;28;20161;-77